sensor_id;sensor_type;location;lat;lon;timestamp;pressure;altitude;pressure_sealevel;temperature;humidity
7524;BME280;3803;51.666;7.630;2022-07-17T00:10:20;102042.50;;;15.48;48.85
7524;BME280;3803;51.666;7.630;2022-07-17T00:10:43;102044.25;;;15.47;48.63
7524;BME280;3803;51.666;7.630;2022-07-17T00:11:04;102033.75;;;15.47;48.74
7524;BME280;3803;51.666;7.630;2022-07-17T00:11:28;102052.22;;;15.49;48.81
7524;BME280;3803;51.666;7.630;2022-07-17T00:11:49;102046.84;;;15.46;48.91
7524;BME280;3803;51.666;7.630;2022-07-17T00:12:11;102038.81;;;15.41;48.94
7524;BME280;3803;51.666;7.630;2022-07-17T00:12:33;102049.28;;;15.40;49.02
7524;BME280;3803;51.666;7.630;2022-07-17T00:12:55;102047.50;;;15.39;49.05
7524;BME280;3803;51.666;7.630;2022-07-17T00:13:17;102049.28;;;15.38;49.07
7524;BME280;3803;51.666;7.630;2022-07-17T00:13:39;102045.66;;;15.34;49.14
7524;BME280;3803;51.666;7.630;2022-07-17T00:14:00;102045.59;;;15.33;49.13
7524;BME280;3803;51.666;7.630;2022-07-17T00:14:23;102041.13;;;15.30;49.30
7524;BME280;3803;51.666;7.630;2022-07-17T00:14:45;102043.69;;;15.27;49.26
7524;BME280;3803;51.666;7.630;2022-07-17T00:15:06;102040.13;;;15.25;49.33
7524;BME280;3803;51.666;7.630;2022-07-17T00:15:28;102038.31;;;15.23;49.68
7524;BME280;3803;51.666;7.630;2022-07-17T00:15:50;102037.41;;;15.22;49.50
7524;BME280;3803;51.666;7.630;2022-07-17T00:18:46;102047.53;;;15.10;50.00
7524;BME280;3803;51.666;7.630;2022-07-17T00:19:10;102045.72;;;15.08;49.81
7524;BME280;3803;51.666;7.630;2022-07-17T00:19:37;102042.19;;;15.06;50.11
7524;BME280;3803;51.666;7.630;2022-07-17T00:19:58;102049.22;;;15.07;50.01
7524;BME280;3803;51.666;7.630;2022-07-17T00:20:21;102047.53;;;15.10;50.13
7524;BME280;3803;51.666;7.630;2022-07-17T00:20:47;102048.28;;;15.05;50.28
7524;BME280;3803;51.666;7.630;2022-07-17T00:21:09;102052.69;;;15.06;50.07
7524;BME280;3803;51.666;7.630;2022-07-17T00:21:31;102050.91;;;15.05;50.35
7524;BME280;3803;51.666;7.630;2022-07-17T00:21:53;102058.84;;;15.07;50.31
7524;BME280;3803;51.666;7.630;2022-07-17T00:22:17;102045.59;;;15.04;50.44
7524;BME280;3803;51.666;7.630;2022-07-17T00:22:40;102053.59;;;15.07;50.43
7524;BME280;3803;51.666;7.630;2022-07-17T00:23:06;102049.97;;;15.03;50.23
7524;BME280;3803;51.666;7.630;2022-07-17T00:27:22;102047.16;;;14.97;50.86
7524;BME280;3803;51.666;7.630;2022-07-17T00:27:43;102044.44;;;14.94;50.74
7524;BME280;3803;51.666;7.630;2022-07-17T00:28:05;102045.47;;;14.99;50.71
7524;BME280;3803;51.666;7.630;2022-07-17T00:28:27;102048.09;;;14.99;50.91
7524;BME280;3803;51.666;7.630;2022-07-17T00:28:50;102044.59;;;14.99;50.69
7524;BME280;3803;51.666;7.630;2022-07-17T00:29:12;102044.63;;;15.00;50.98
7524;BME280;3803;51.666;7.630;2022-07-17T00:29:34;102045.50;;;15.01;50.75
7524;BME280;3803;51.666;7.630;2022-07-17T00:29:56;102049.06;;;15.03;50.57
7524;BME280;3803;51.666;7.630;2022-07-17T00:30:18;102050.00;;;15.05;50.58
7524;BME280;3803;51.666;7.630;2022-07-17T00:30:40;102049.97;;;15.03;50.76
7524;BME280;3803;51.666;7.630;2022-07-17T00:31:01;102045.50;;;15.01;50.51
7524;BME280;3803;51.666;7.630;2022-07-17T00:31:23;102037.63;;;15.01;50.65
7524;BME280;3803;51.666;7.630;2022-07-17T00:31:45;102046.50;;;15.04;50.72
7524;BME280;3803;51.666;7.630;2022-07-17T00:32:06;102049.13;;;15.04;50.78
7524;BME280;3803;51.666;7.630;2022-07-17T00:32:28;102041.19;;;15.03;50.52
7524;BME280;3803;51.666;7.630;2022-07-17T00:32:49;102051.84;;;15.07;50.75
7524;BME280;3803;51.666;7.630;2022-07-17T00:33:10;102044.81;;;15.06;50.88
7524;BME280;3803;51.666;7.630;2022-07-17T00:33:31;102045.59;;;15.04;50.82
7524;BME280;3803;51.666;7.630;2022-07-17T00:33:52;102047.44;;;15.06;50.58
7524;BME280;3803;51.666;7.630;2022-07-17T00:34:14;102050.16;;;15.10;50.77
7524;BME280;3803;51.666;7.630;2022-07-17T00:34:35;102044.06;;;15.11;50.80
7524;BME280;3803;51.666;7.630;2022-07-17T00:34:57;102044.06;;;15.11;50.72
7524;BME280;3803;51.666;7.630;2022-07-17T00:35:18;102048.41;;;15.10;50.63
7524;BME280;3803;51.666;7.630;2022-07-17T00:35:39;102041.38;;;15.09;50.67
7524;BME280;3803;51.666;7.630;2022-07-17T00:36:07;102049.41;;;15.14;50.56
7524;BME280;3803;51.666;7.630;2022-07-17T00:36:29;102049.41;;;15.14;50.84
7524;BME280;3803;51.666;7.630;2022-07-17T00:36:52;102038.81;;;15.11;50.58
7524;BME280;3803;51.666;7.630;2022-07-17T00:52:17;102044.50;;;14.66;51.43
7524;BME280;3803;51.666;7.630;2022-07-17T00:52:39;102040.88;;;14.63;51.34
7524;BME280;3803;51.666;7.630;2022-07-17T00:53:03;102038.19;;;14.61;51.67
7524;BME280;3803;51.666;7.630;2022-07-17T00:53:28;102038.97;;;14.59;51.54
7524;BME280;3803;51.666;7.630;2022-07-17T00:53:55;102042.44;;;14.58;51.84
7524;BME280;3803;51.666;7.630;2022-07-17T00:54:20;102037.94;;;14.53;51.71
7524;BME280;3803;51.666;7.630;2022-07-17T00:54:45;102035.31;;;14.53;51.83
7524;BME280;3803;51.666;7.630;2022-07-17T00:55:11;102041.53;;;14.57;51.79
7524;BME280;3803;51.666;7.630;2022-07-17T00:55:35;102036.06;;;14.49;51.82
7524;BME280;3803;51.666;7.630;2022-07-17T00:55:57;102040.38;;;14.47;51.61
7524;BME280;3803;51.666;7.630;2022-07-17T00:56:22;102044.88;;;14.51;51.76
7524;BME280;3803;51.666;7.630;2022-07-17T00:56:46;102038.59;;;14.46;52.08
7524;BME280;3803;51.666;7.630;2022-07-17T00:57:12;102038.59;;;14.46;52.05
7524;BME280;3803;51.666;7.630;2022-07-17T00:57:36;102036.72;;;14.42;52.24
7524;BME280;3803;51.666;7.630;2022-07-17T00:58:04;102039.41;;;14.45;52.32
7524;BME280;3803;51.666;7.630;2022-07-17T00:58:28;102041.09;;;14.43;52.47
7524;BME280;3803;51.666;7.630;2022-07-17T00:58:53;102044.66;;;14.45;52.23
7524;BME280;3803;51.666;7.630;2022-07-17T00:59:15;102041.91;;;14.41;52.15
7524;BME280;3803;51.666;7.630;2022-07-17T00:59:39;102032.25;;;14.39;52.18
7524;BME280;3803;51.666;7.630;2022-07-17T01:00:04;102049.00;;;14.43;52.17
7524;BME280;3803;51.666;7.630;2022-07-17T01:00:31;102040.88;;;14.35;52.14
7524;BME280;3803;51.666;7.630;2022-07-17T01:00:54;102046.16;;;14.37;52.11
7524;BME280;3803;51.666;7.630;2022-07-17T01:01:17;102047.13;;;14.39;52.25
7524;BME280;3803;51.666;7.630;2022-07-17T01:01:38;102039.25;;;14.39;52.52
7524;BME280;3803;51.666;7.630;2022-07-17T01:02:11;102047.13;;;14.39;52.76
7524;BME280;3803;51.666;7.630;2022-07-17T01:02:32;102043.53;;;14.37;52.57
7524;BME280;3803;51.666;7.630;2022-07-17T01:02:55;102032.94;;;14.34;52.51
7524;BME280;3803;51.666;7.630;2022-07-17T01:03:17;102036.41;;;14.33;52.65
7524;BME280;3803;51.666;7.630;2022-07-17T01:03:39;102039.13;;;14.36;52.49
7524;BME280;3803;51.666;7.630;2022-07-17T01:04:01;102047.00;;;14.36;52.58
7524;BME280;3803;51.666;7.630;2022-07-17T01:05:45;102039.81;;;14.30;52.69
7524;BME280;3803;51.666;7.630;2022-07-17T01:06:08;102046.78;;;14.30;52.72
7524;BME280;3803;51.666;7.630;2022-07-17T01:06:31;102042.38;;;14.29;52.55
7524;BME280;3803;51.666;7.630;2022-07-17T01:06:52;102047.63;;;14.29;52.70
7524;BME280;3803;51.666;7.630;2022-07-17T01:07:13;102052.03;;;14.28;52.68
7524;BME280;3803;51.666;7.630;2022-07-17T01:07:34;102050.25;;;14.29;52.73
7524;BME280;3803;51.666;7.630;2022-07-17T01:07:56;102046.72;;;14.27;52.46
7524;BME280;3803;51.666;7.630;2022-07-17T01:08:18;102045.78;;;14.24;52.87
7524;BME280;3803;51.666;7.630;2022-07-17T01:08:41;102051.97;;;14.27;52.88
7524;BME280;3803;51.666;7.630;2022-07-17T01:09:03;102058.13;;;14.27;53.04
7524;BME280;3803;51.666;7.630;2022-07-17T01:09:28;102065.16;;;14.28;52.79
7524;BME280;3803;51.666;7.630;2022-07-17T01:09:50;102050.97;;;14.23;52.91
7524;BME280;3803;51.666;7.630;2022-07-17T01:10:13;102058.91;;;14.24;52.70
7524;BME280;3803;51.666;7.630;2022-07-17T01:10:35;102048.28;;;14.21;52.84
7524;BME280;3803;51.666;7.630;2022-07-17T01:10:57;102061.53;;;14.24;52.93
7524;BME280;3803;51.666;7.630;2022-07-17T01:11:18;102056.22;;;14.23;52.89
7524;BME280;3803;51.666;7.630;2022-07-17T01:11:40;102054.44;;;14.22;53.03
7524;BME280;3803;51.666;7.630;2022-07-17T01:12:01;102057.91;;;14.21;52.79
7524;BME280;3803;51.666;7.630;2022-07-17T01:12:24;102053.50;;;14.20;52.92
7524;BME280;3803;51.666;7.630;2022-07-17T01:12:47;102052.53;;;14.18;52.95
7524;BME280;3803;51.666;7.630;2022-07-17T01:13:09;102054.38;;;14.20;53.11
7524;BME280;3803;51.666;7.630;2022-07-17T01:31:22;102049.75;;;14.13;53.10
7524;BME280;3803;51.666;7.630;2022-07-17T01:31:45;102057.59;;;14.11;53.38
7524;BME280;3803;51.666;7.630;2022-07-17T01:32:06;102044.31;;;14.08;53.52
7524;BME280;3803;51.666;7.630;2022-07-17T01:32:35;102053.28;;;14.14;53.24
7524;BME280;3803;51.666;7.630;2022-07-17T01:32:57;102057.69;;;14.15;53.70
7524;BME280;3803;51.666;7.630;2022-07-17T01:33:20;102059.47;;;14.16;53.36
7524;BME280;3803;51.666;7.630;2022-07-17T01:33:41;102054.88;;;14.10;53.54
7524;BME280;3803;51.666;7.630;2022-07-17T01:34:05;102045.34;;;14.12;53.66
7524;BME280;3803;51.666;7.630;2022-07-17T01:34:27;102050.59;;;14.12;53.63
7524;BME280;3803;51.666;7.630;2022-07-17T01:34:48;102045.34;;;14.12;53.57
7524;BME280;3803;51.666;7.630;2022-07-17T01:35:11;102051.56;;;14.14;53.72
7524;BME280;3803;51.666;7.630;2022-07-17T01:35:33;102046.31;;;14.14;53.52
7524;BME280;3803;51.666;7.630;2022-07-17T01:35:54;102045.34;;;14.12;53.71
7524;BME280;3803;51.666;7.630;2022-07-17T01:36:15;102049.75;;;14.13;53.66
7524;BME280;3803;51.666;7.630;2022-07-17T01:36:37;102043.56;;;14.11;53.75
7524;BME280;3803;51.666;7.630;2022-07-17T01:36:59;102047.19;;;14.15;53.65
7524;BME280;3803;51.666;7.630;2022-07-17T01:37:20;102042.59;;;14.09;53.37
7524;BME280;3803;51.666;7.630;2022-07-17T01:37:45;102044.50;;;14.13;53.54
7524;BME280;3803;51.666;7.630;2022-07-17T01:38:07;102040.94;;;14.11;53.76
7524;BME280;3803;51.666;7.630;2022-07-17T01:38:30;102052.38;;;14.13;53.69
7524;BME280;3803;51.666;7.630;2022-07-17T01:38:51;102039.13;;;14.10;53.64
7524;BME280;3803;51.666;7.630;2022-07-17T01:39:13;102054.22;;;14.16;53.59
7524;BME280;3803;51.666;7.630;2022-07-17T01:39:34;102044.50;;;14.13;53.49
7524;BME280;3803;51.666;7.630;2022-07-17T01:40:15;102050.53;;;14.10;53.59
7524;BME280;3803;51.666;7.630;2022-07-17T01:40:38;102056.69;;;14.11;53.34
7524;BME280;3803;51.666;7.630;2022-07-17T01:41:00;102050.53;;;14.10;53.21
7524;BME280;3803;51.666;7.630;2022-07-17T01:41:23;102060.13;;;14.10;53.38
7524;BME280;3803;51.666;7.630;2022-07-17T01:41:44;102042.38;;;14.03;53.50
7524;BME280;3803;51.666;7.630;2022-07-17T01:42:06;102045.94;;;14.05;53.48
7524;BME280;3803;51.666;7.630;2022-07-17T01:42:28;102041.59;;;14.05;53.36
7524;BME280;3803;51.666;7.630;2022-07-17T01:42:50;102047.72;;;14.06;53.42
7524;BME280;3803;51.666;7.630;2022-07-17T01:43:11;102045.09;;;14.06;53.66
7524;BME280;3803;51.666;7.630;2022-07-17T01:43:33;102038.81;;;14.01;53.75
7524;BME280;3803;51.666;7.630;2022-07-17T01:43:54;102043.31;;;14.05;53.65
7524;BME280;3803;51.666;7.630;2022-07-17T01:44:16;102042.38;;;14.03;53.74
7524;BME280;3803;51.666;7.630;2022-07-17T01:44:38;102040.66;;;14.03;53.79
7524;BME280;3803;51.666;7.630;2022-07-17T01:45:00;102037.13;;;14.03;53.79
7524;BME280;3803;51.666;7.630;2022-07-17T01:45:21;102033.56;;;14.01;54.25
7524;BME280;3803;51.666;7.630;2022-07-17T01:45:42;102040.66;;;14.03;54.07
7524;BME280;3803;51.666;7.630;2022-07-17T01:46:03;102051.19;;;14.05;53.83
7524;BME280;3803;51.666;7.630;2022-07-17T01:46:25;102038.81;;;14.01;54.06
7524;BME280;3803;51.666;7.630;2022-07-17T01:46:47;102044.16;;;14.04;53.88
7524;BME280;3803;51.666;7.630;2022-07-17T01:47:08;102039.75;;;14.03;53.98
7524;BME280;3803;51.666;7.630;2022-07-17T01:47:30;102044.16;;;14.04;53.98
7524;BME280;3803;51.666;7.630;2022-07-17T01:47:51;102046.00;;;14.06;53.98
7524;BME280;3803;51.666;7.630;2022-07-17T01:48:23;102041.59;;;14.05;53.93
7524;BME280;3803;51.666;7.630;2022-07-17T01:48:45;102037.06;;;14.01;53.94
7524;BME280;3803;51.666;7.630;2022-07-17T01:49:06;102045.94;;;14.05;53.99
7524;BME280;3803;51.666;7.630;2022-07-17T01:49:28;102042.38;;;14.03;53.92
7524;BME280;3803;51.666;7.630;2022-07-17T01:49:53;102037.97;;;14.02;54.18
7524;BME280;3803;51.666;7.630;2022-07-17T01:50:15;102047.63;;;14.03;53.80
7524;BME280;3803;51.666;7.630;2022-07-17T01:50:37;102041.47;;;14.02;53.83
7524;BME280;3803;51.666;7.630;2022-07-17T01:50:58;102045.78;;;14.00;53.68
7524;BME280;3803;51.666;7.630;2022-07-17T01:51:19;102040.44;;;13.97;54.01
7524;BME280;3803;51.666;7.630;2022-07-17T01:51:44;102043.06;;;13.97;53.67
7524;BME280;3803;51.666;7.630;2022-07-17T01:52:05;102049.16;;;13.96;53.72
7524;BME280;3803;51.666;7.630;2022-07-17T01:52:27;102051.72;;;13.94;53.66
7524;BME280;3803;51.666;7.630;2022-07-17T01:52:48;102045.31;;;13.86;53.75
7524;BME280;3803;51.666;7.630;2022-07-17T01:53:10;102048.00;;;13.88;54.07
7524;BME280;3803;51.666;7.630;2022-07-17T01:53:32;102050.63;;;13.88;54.16
7524;BME280;3803;51.666;7.630;2022-07-17T01:53:54;102048.78;;;13.85;53.97
7524;BME280;3803;51.666;7.630;2022-07-17T01:54:16;102041.53;;;13.78;53.95
7524;BME280;3803;51.666;7.630;2022-07-17T01:54:41;102052.13;;;13.81;54.39
7524;BME280;3803;51.666;7.630;2022-07-17T01:55:04;102049.25;;;13.73;54.21
7524;BME280;3803;51.666;7.630;2022-07-17T01:55:26;102044.00;;;13.73;54.48
7524;BME280;3803;51.666;7.630;2022-07-17T01:55:47;102037.75;;;13.69;54.40
7524;BME280;3803;51.666;7.630;2022-07-17T01:56:09;102044.78;;;13.70;54.40
7524;BME280;3803;51.666;7.630;2022-07-17T01:56:30;102042.09;;;13.69;54.45
7524;BME280;3803;51.666;7.630;2022-07-17T01:56:52;102048.25;;;13.69;54.63
7524;BME280;3803;51.666;7.630;2022-07-17T01:57:14;102053.59;;;13.73;54.82
7524;BME280;3803;51.666;7.630;2022-07-17T01:57:37;102048.34;;;13.73;54.85
7524;BME280;3803;51.666;7.630;2022-07-17T01:57:59;102048.34;;;13.73;54.68
7524;BME280;3803;51.666;7.630;2022-07-17T01:58:20;102045.78;;;13.74;54.88
7524;BME280;3803;51.666;7.630;2022-07-17T01:58:42;102044.84;;;13.72;54.77
7524;BME280;3803;51.666;7.630;2022-07-17T01:59:04;102045.78;;;13.74;55.11
7524;BME280;3803;51.666;7.630;2022-07-17T01:59:26;102043.09;;;13.73;54.50
7524;BME280;3803;51.666;7.630;2022-07-17T01:59:47;102039.63;;;13.74;54.85
7524;BME280;3803;51.666;7.630;2022-07-17T02:00:12;102041.31;;;13.71;54.74
7524;BME280;3803;51.666;7.630;2022-07-17T02:00:36;102038.69;;;13.71;54.88
7524;BME280;3803;51.666;7.630;2022-07-17T02:00:57;102041.31;;;13.71;54.66
7524;BME280;3803;51.666;7.630;2022-07-17T02:01:18;102044.00;;;13.73;54.68
7524;BME280;3803;51.666;7.630;2022-07-17T02:01:40;102034.22;;;13.69;54.75
7524;BME280;3803;51.666;7.630;2022-07-17T02:02:01;102049.31;;;13.75;54.65
7524;BME280;3803;51.666;7.630;2022-07-17T02:02:23;102051.94;;;13.75;54.70
7524;BME280;3803;51.666;7.630;2022-07-17T02:02:45;102048.34;;;13.73;54.53
7524;BME280;3803;51.666;7.630;2022-07-17T02:03:06;102046.69;;;13.75;54.48
7524;BME280;3803;51.666;7.630;2022-07-17T02:03:28;102050.13;;;13.74;54.26
7524;BME280;3803;51.666;7.630;2022-07-17T02:03:49;102049.19;;;13.71;54.38
7524;BME280;3803;51.666;7.630;2022-07-17T02:04:11;102046.34;;;13.65;54.22
7524;BME280;3803;51.666;7.630;2022-07-17T02:04:34;102046.47;;;13.68;54.49
7524;BME280;3803;51.666;7.630;2022-07-17T02:04:56;102043.78;;;13.67;54.60
7524;BME280;3803;51.666;7.630;2022-07-17T02:05:17;102037.63;;;13.66;54.57
7524;BME280;3803;51.666;7.630;2022-07-17T02:05:39;102047.31;;;13.67;54.43
7524;BME280;3803;51.666;7.630;2022-07-17T02:06:01;102039.22;;;13.61;54.20
7524;BME280;3803;51.666;7.630;2022-07-17T02:06:24;102040.91;;;13.59;54.58
7524;BME280;3803;51.666;7.630;2022-07-17T02:06:46;102036.47;;;13.58;54.49
7524;BME280;3803;51.666;7.630;2022-07-17T02:07:08;102040.91;;;13.59;54.80
7524;BME280;3803;51.666;7.630;2022-07-17T02:07:30;102024.97;;;13.54;54.63
7524;BME280;3803;51.666;7.630;2022-07-17T02:07:54;102036.44;;;13.56;54.77
7524;BME280;3803;51.666;7.630;2022-07-17T02:08:15;102045.06;;;13.54;55.12
7524;BME280;3803;51.666;7.630;2022-07-17T02:08:38;102030.22;;;13.54;54.89
7524;BME280;3803;51.666;7.630;2022-07-17T02:09:00;102035.41;;;13.53;54.84
7524;BME280;3803;51.666;7.630;2022-07-17T02:09:23;102033.66;;;13.52;55.21
7524;BME280;3803;51.666;7.630;2022-07-17T02:09:45;102034.41;;;13.49;55.01
7524;BME280;3803;51.666;7.630;2022-07-17T02:10:08;102043.16;;;13.50;54.96
7524;BME280;3803;51.666;7.630;2022-07-17T02:10:30;102032.56;;;13.47;54.87
7524;BME280;3803;51.666;7.630;2022-07-17T02:10:51;102035.19;;;13.47;55.01
7524;BME280;3803;51.666;7.630;2022-07-17T02:11:15;102047.47;;;13.48;55.04
7524;BME280;3803;51.666;7.630;2022-07-17T02:11:37;102040.34;;;13.43;55.16
7524;BME280;3803;51.666;7.630;2022-07-17T02:11:59;102036.91;;;13.46;55.24
7524;BME280;3803;51.666;7.630;2022-07-17T02:12:20;102042.28;;;13.49;55.22
7524;BME280;3803;51.666;7.630;2022-07-17T02:12:44;102035.97;;;13.44;55.21
7524;BME280;3803;51.666;7.630;2022-07-17T02:13:07;102033.28;;;13.42;55.14
7524;BME280;3803;51.666;7.630;2022-07-17T02:13:29;102045.69;;;13.47;55.11
7524;BME280;3803;51.666;7.630;2022-07-17T02:13:51;102042.13;;;13.45;55.22
7524;BME280;3803;51.666;7.630;2022-07-17T02:20:11;102031.31;;;13.35;54.97
7524;BME280;3803;51.666;7.630;2022-07-17T02:20:35;102038.31;;;13.36;55.54
7524;BME280;3803;51.666;7.630;2022-07-17T02:20:57;102032.25;;;13.37;55.29
7524;BME280;3803;51.666;7.630;2022-07-17T02:21:18;102028.69;;;13.35;55.64
7524;BME280;3803;51.666;7.630;2022-07-17T02:21:39;102027.72;;;13.33;55.39
7524;BME280;3803;51.666;7.630;2022-07-17T02:22:02;102037.41;;;13.36;55.27
7524;BME280;3803;51.666;7.630;2022-07-17T02:22:25;102025.84;;;13.30;55.67
7524;BME280;3803;51.666;7.630;2022-07-17T02:22:48;102032.06;;;13.33;55.44
7524;BME280;3803;51.666;7.630;2022-07-17T02:23:09;102039.19;;;13.37;55.62
7524;BME280;3803;51.666;7.630;2022-07-17T02:23:32;102033.94;;;13.35;55.62
7524;BME280;3803;51.666;7.630;2022-07-17T02:23:54;102034.88;;;13.37;55.60
7524;BME280;3803;51.666;7.630;2022-07-17T02:24:15;102029.50;;;13.34;55.66
7524;BME280;3803;51.666;7.630;2022-07-17T02:24:39;102032.06;;;13.33;55.93
7524;BME280;3803;51.666;7.630;2022-07-17T02:25:01;102037.41;;;13.36;55.81
7524;BME280;3803;51.666;7.630;2022-07-17T02:25:23;102029.47;;;13.33;55.68
7524;BME280;3803;51.666;7.630;2022-07-17T02:25:47;102032.94;;;13.33;55.88
7524;BME280;3803;51.666;7.630;2022-07-17T02:26:09;102041.72;;;13.34;55.82
7524;BME280;3803;51.666;7.630;2022-07-17T02:26:31;102024.03;;;13.28;55.98
7524;BME280;3803;51.666;7.630;2022-07-17T02:26:52;102039.81;;;13.29;55.82
7524;BME280;3803;51.666;7.630;2022-07-17T02:27:13;102035.38;;;13.27;55.79
7524;BME280;3803;51.666;7.630;2022-07-17T02:27:35;102039.88;;;13.31;55.99
7524;BME280;3803;51.666;7.630;2022-07-17T02:27:57;102038.00;;;13.27;56.07
7524;BME280;3803;51.666;7.630;2022-07-17T02:28:18;102023.03;;;13.24;55.94
7524;BME280;3803;51.666;7.630;2022-07-17T02:28:40;102036.31;;;13.29;55.89
7524;BME280;3803;51.666;7.630;2022-07-17T02:29:01;102032.75;;;13.27;56.17
7524;BME280;3803;51.666;7.630;2022-07-17T02:29:23;102040.72;;;13.30;55.88
7524;BME280;3803;51.666;7.630;2022-07-17T02:29:45;102033.63;;;13.27;56.16
7524;BME280;3803;51.666;7.630;2022-07-17T02:30:13;102039.78;;;13.28;55.97
7524;BME280;3803;51.666;7.630;2022-07-17T02:30:35;102042.56;;;13.33;56.04
7524;BME280;3803;51.666;7.630;2022-07-17T02:30:57;102035.53;;;13.32;56.32
7524;BME280;3803;51.666;7.630;2022-07-17T02:31:18;102048.69;;;13.33;55.83
7524;BME280;3803;51.666;7.630;2022-07-17T02:31:39;102040.66;;;13.28;55.85
7524;BME280;3803;51.666;7.630;2022-07-17T02:32:01;102034.47;;;13.26;56.00
7524;BME280;3803;51.666;7.630;2022-07-17T02:32:24;102042.41;;;13.28;55.87
7524;BME280;3803;51.666;7.630;2022-07-17T02:32:45;102046.56;;;13.23;55.90
7524;BME280;3803;51.666;7.630;2022-07-17T02:33:06;102040.53;;;13.25;56.07
7524;BME280;3803;51.666;7.630;2022-07-17T02:33:28;102050.97;;;13.24;55.98
7524;BME280;3803;51.666;7.630;2022-07-17T02:33:50;102045.66;;;13.22;55.86
7524;BME280;3803;51.666;7.630;2022-07-17T02:34:12;102043.84;;;13.20;56.03
7524;BME280;3803;51.666;7.630;2022-07-17T02:34:34;102049.97;;;13.20;55.88
7524;BME280;3803;51.666;7.630;2022-07-17T02:34:56;102045.63;;;13.21;55.67
7524;BME280;3803;51.666;7.630;2022-07-17T02:35:18;102044.66;;;13.19;55.83
7524;BME280;3803;51.666;7.630;2022-07-17T02:35:41;102035.75;;;13.13;55.76
7524;BME280;3803;51.666;7.630;2022-07-17T02:36:03;102049.78;;;13.15;55.78
7524;BME280;3803;51.666;7.630;2022-07-17T02:36:25;102039.19;;;13.12;55.76
7524;BME280;3803;51.666;7.630;2022-07-17T02:36:48;102043.59;;;13.13;56.15
7524;BME280;3803;51.666;7.630;2022-07-17T02:37:13;102054.09;;;13.13;56.06
7524;BME280;3803;51.666;7.630;2022-07-17T02:37:39;102045.28;;;13.11;55.97
7524;BME280;3803;51.666;7.630;2022-07-17T02:38:04;102048.78;;;13.12;56.14
7524;BME280;3803;51.666;7.630;2022-07-17T02:38:27;102036.34;;;13.06;55.96
7524;BME280;3803;51.666;7.630;2022-07-17T02:38:49;102049.63;;;13.11;56.18
7524;BME280;3803;51.666;7.630;2022-07-17T02:39:12;102046.88;;;13.08;56.27
7524;BME280;3803;51.666;7.630;2022-07-17T02:39:35;102047.00;;;13.11;56.25
7524;BME280;3803;51.666;7.630;2022-07-17T02:39:57;102052.16;;;13.09;56.18
7524;BME280;3803;51.666;7.630;2022-07-17T02:40:19;102039.84;;;13.07;56.21
7524;BME280;3803;51.666;7.630;2022-07-17T02:40:40;102047.75;;;13.08;56.39
7524;BME280;3803;51.666;7.630;2022-07-17T02:41:03;102045.97;;;13.07;56.64
7524;BME280;3803;51.666;7.630;2022-07-17T02:41:24;102031.03;;;13.05;56.34
7524;BME280;3803;51.666;7.630;2022-07-17T02:41:45;102042.53;;;13.08;56.12
7524;BME280;3803;51.666;7.630;2022-07-17T02:42:06;102048.59;;;13.07;56.17
7524;BME280;3803;51.666;7.630;2022-07-17T02:42:46;102049.53;;;13.09;56.50
7524;BME280;3803;51.666;7.630;2022-07-17T02:43:08;102044.31;;;13.09;56.37
7524;BME280;3803;51.666;7.630;2022-07-17T02:43:30;102050.56;;;13.13;56.63
7524;BME280;3803;51.666;7.630;2022-07-17T02:43:51;102040.81;;;13.09;56.65
7524;BME280;3803;51.666;7.630;2022-07-17T02:44:12;102036.41;;;13.08;56.52
7524;BME280;3803;51.666;7.630;2022-07-17T02:44:34;102052.34;;;13.14;56.51
7524;BME280;3803;51.666;7.630;2022-07-17T02:44:55;102051.47;;;13.13;56.76
7524;BME280;3803;51.666;7.630;2022-07-17T02:45:17;102044.44;;;13.12;56.34
7524;BME280;3803;51.666;7.630;2022-07-17T02:45:46;102049.69;;;13.12;56.37
7524;BME280;3803;51.666;7.630;2022-07-17T02:46:07;102043.53;;;13.12;56.60
7524;BME280;3803;51.666;7.630;2022-07-17T02:46:30;102051.47;;;13.13;56.39
7524;BME280;3803;51.666;7.630;2022-07-17T02:46:52;102051.47;;;13.13;56.28
7524;BME280;3803;51.666;7.630;2022-07-17T02:47:30;102053.34;;;13.18;56.40
7524;BME280;3803;51.666;7.630;2022-07-17T02:47:53;102043.53;;;13.12;56.36
7524;BME280;3803;51.666;7.630;2022-07-17T02:48:16;102041.81;;;13.12;56.67
7524;BME280;3803;51.666;7.630;2022-07-17T02:48:39;102049.78;;;13.15;56.34
7524;BME280;3803;51.666;7.630;2022-07-17T02:49:03;102039.22;;;13.14;56.59
7524;BME280;3803;51.666;7.630;2022-07-17T02:49:26;102053.41;;;13.19;56.41
7524;BME280;3803;51.666;7.630;2022-07-17T02:49:47;102044.44;;;13.12;56.19
7524;BME280;3803;51.666;7.630;2022-07-17T02:50:09;102039.19;;;13.12;56.16
7524;BME280;3803;51.666;7.630;2022-07-17T02:50:31;102037.41;;;13.11;56.54
7524;BME280;3803;51.666;7.630;2022-07-17T02:50:53;102044.53;;;13.15;56.47
7524;BME280;3803;51.666;7.630;2022-07-17T02:51:14;102043.59;;;13.13;56.60
7524;BME280;3803;51.666;7.630;2022-07-17T02:51:37;102050.72;;;13.18;56.68
7524;BME280;3803;51.666;7.630;2022-07-17T02:51:58;102048.91;;;13.15;56.62
7524;BME280;3803;51.666;7.630;2022-07-17T02:52:20;102046.31;;;13.16;56.77
7524;BME280;3803;51.666;7.630;2022-07-17T02:52:42;102041.09;;;13.16;56.59
7524;BME280;3803;51.666;7.630;2022-07-17T02:53:05;102039.31;;;13.15;56.08
7524;BME280;3803;51.666;7.630;2022-07-17T02:53:27;102049.00;;;13.18;56.38
7524;BME280;3803;51.666;7.630;2022-07-17T02:53:48;102047.22;;;13.17;56.48
7524;BME280;3803;51.666;7.630;2022-07-17T02:54:10;102038.44;;;13.15;56.28
7524;BME280;3803;51.666;7.630;2022-07-17T02:54:31;102051.56;;;13.16;56.34
7524;BME280;3803;51.666;7.630;2022-07-17T02:54:52;102045.31;;;13.13;56.17
7524;BME280;3803;51.666;7.630;2022-07-17T02:55:14;102045.44;;;13.16;56.35
7524;BME280;3803;51.666;7.630;2022-07-17T02:55:36;102042.75;;;13.14;56.40
7524;BME280;3803;51.666;7.630;2022-07-17T02:55:58;102046.31;;;13.16;56.54
7524;BME280;3803;51.666;7.630;2022-07-17T02:56:21;102053.34;;;13.18;56.48
7524;BME280;3803;51.666;7.630;2022-07-17T02:56:43;102041.81;;;13.12;56.32
7524;BME280;3803;51.666;7.630;2022-07-17T02:57:05;102051.56;;;13.16;56.53
7524;BME280;3803;51.666;7.630;2022-07-17T02:57:25;102053.41;;;13.19;56.19
7524;BME280;3803;51.666;7.630;2022-07-17T03:05:02;102046.66;;;13.01;56.44